createdAt,value
2019-04-26T00:02:53.832Z,8.34
2019-04-26T00:05:42.540Z,8.33
2019-04-26T00:08:33.341Z,8.24
2019-04-26T00:11:41.858Z,8.22
2019-04-26T00:14:56.982Z,8.27
2019-04-26T00:17:52.275Z,8.25
2019-04-26T00:20:41.084Z,8.32
2019-04-26T00:23:30.547Z,8.25
2019-04-26T00:26:21.819Z,8.24
2019-04-26T00:29:11.372Z,8.15
2019-04-26T00:32:01.276Z,8.05
2019-04-26T00:34:50.273Z,8.14
2019-04-26T00:37:39.943Z,8.11
2019-04-26T00:40:29.907Z,8.14
2019-04-26T00:43:19.195Z,8.22
2019-04-26T00:46:09.919Z,8.21
2019-04-26T00:49:01.450Z,8.19
2019-04-26T00:51:51.088Z,8.23
2019-04-26T00:54:41.309Z,8.14
2019-04-26T00:57:31.405Z,8.12
2019-04-26T01:00:22.007Z,8.08
2019-04-26T01:03:10.877Z,8.05
2019-04-26T01:06:01.554Z,8.06
2019-04-26T01:08:51.224Z,8.08
2019-04-26T01:11:40.111Z,8.00
2019-04-26T01:14:29.999Z,7.90
2019-04-26T01:17:20.332Z,7.92
2019-04-26T01:20:09.914Z,7.88
2019-04-26T01:23:02.293Z,8.13
2019-04-26T01:26:01.967Z,8.11
2019-04-26T01:28:59.267Z,8.11
2019-04-26T01:32:06.105Z,8.14
2019-04-26T01:34:56.301Z,8.29
2019-04-26T01:37:46.531Z,8.40
2019-04-26T01:40:37.234Z,8.69
2019-04-26T01:43:45.514Z,8.89
2019-04-26T01:46:39.354Z,9.10
2019-04-26T01:49:28.494Z,9.35
2019-04-26T01:52:18.110Z,9.56
2019-04-26T01:55:07.469Z,9.63
2019-04-26T01:57:57.403Z,9.67
2019-04-26T02:01:07.076Z,9.69
2019-04-26T02:03:55.715Z,9.69
2019-04-26T02:06:45.015Z,9.65
2019-04-26T02:09:33.641Z,9.62
2019-04-26T02:12:23.831Z,9.52
2019-04-26T02:15:14.793Z,9.44
2019-04-26T02:18:04.725Z,9.54
2019-04-26T02:21:03.373Z,9.59
2019-04-26T02:23:56.932Z,9.67
2019-04-26T02:26:46.602Z,9.70
2019-04-26T02:29:35.995Z,9.72
2019-04-26T02:32:27.240Z,9.77
2019-04-26T02:35:16.628Z,9.76
2019-04-26T02:38:06.156Z,9.84
2019-04-26T02:40:56.010Z,9.75
2019-04-26T02:43:46.431Z,9.78
2019-04-26T02:46:50.353Z,9.91
2019-04-26T02:49:43.479Z,9.90
2019-04-26T02:53:03.320Z,9.91
2019-04-26T02:56:28.181Z,9.87
2019-04-26T02:59:34.573Z,9.98
2019-04-26T03:02:24.779Z,10.00
2019-04-26T03:05:13.973Z,9.83
2019-04-26T03:08:07.306Z,9.76
2019-04-26T03:11:19.059Z,9.83
2019-04-26T03:14:26.000Z,9.95
2019-04-26T03:17:32.526Z,10.02
2019-04-26T03:20:29.113Z,10.04
2019-04-26T03:23:41.782Z,10.15
2019-04-26T03:27:04.651Z,10.21
2019-04-26T03:30:18.418Z,10.11
2019-04-26T03:33:23.310Z,10.10
2019-04-26T03:36:33.938Z,10.05
2019-04-26T03:39:30.167Z,10.06
2019-04-26T03:42:49.168Z,10.17
2019-04-26T03:46:21.341Z,10.23
2019-04-26T03:49:31.998Z,10.25
2019-04-26T03:52:53.470Z,10.22
2019-04-26T03:56:23.132Z,10.23
2019-04-26T03:59:44.166Z,10.28
2019-04-26T04:02:50.402Z,10.21
2019-04-26T04:05:46.018Z,10.30
2019-04-26T04:08:48.186Z,10.26
2019-04-26T04:11:49.157Z,10.40
2019-04-26T04:15:06.226Z,10.42
2019-04-26T04:17:59.454Z,10.48
2019-04-26T04:21:32.448Z,10.52
2019-04-26T04:24:42.662Z,10.64
2019-04-26T04:27:41.382Z,10.66
2019-04-26T04:31:23.971Z,10.68
2019-04-26T04:34:19.422Z,10.70
2019-04-26T04:37:11.675Z,10.70
2019-04-26T04:40:29.718Z,10.63
2019-04-26T04:43:49.271Z,10.65
2019-04-26T04:47:24.411Z,10.57
2019-04-26T04:50:34.379Z,10.62
2019-04-26T04:53:51.612Z,10.55
2019-04-26T04:56:47.847Z,10.65
2019-04-26T04:59:25.415Z,10.53
2019-04-26T05:02:24.992Z,10.53
2019-04-26T05:05:31.209Z,10.29
2019-04-26T05:08:17.472Z,10.19
2019-04-26T05:11:03.816Z,10.26
2019-04-26T05:13:46.384Z,10.20
2019-04-26T05:16:42.573Z,10.13
2019-04-26T05:19:40.417Z,10.12
2019-04-26T05:22:47.359Z,10.18
2019-04-26T05:26:12.295Z,10.34
2019-04-26T05:28:52.101Z,10.02
2019-04-26T05:31:51.556Z,10.16
2019-04-26T05:34:56.997Z,10.07
2019-04-26T05:38:00.449Z,9.91
2019-04-26T05:40:59.274Z,9.90
2019-04-26T05:44:10.126Z,9.85
2019-04-26T05:47:40.275Z,9.81
2019-04-26T05:51:21.312Z,9.79
2019-04-26T05:54:45.849Z,9.88
2019-04-26T05:57:41.373Z,9.78
2019-04-26T06:00:26.010Z,9.72
2019-04-26T06:03:54.324Z,9.72
2019-04-26T06:06:40.635Z,9.81
2019-04-26T06:10:03.931Z,9.82
2019-04-26T06:12:52.411Z,9.77
2019-04-26T06:15:38.620Z,9.91
2019-04-26T06:18:47.479Z,9.80
2019-04-26T06:21:28.204Z,9.85
2019-04-26T06:25:08.454Z,9.90
2019-04-26T06:28:02.878Z,9.93
2019-04-26T06:30:46.711Z,9.86
2019-04-26T06:33:33.544Z,9.88
2019-04-26T06:36:10.119Z,9.81
2019-04-26T06:39:28.462Z,9.83
2019-04-26T06:42:55.288Z,10.01
2019-04-26T06:46:22.941Z,10.08
2019-04-26T06:49:12.030Z,10.19
2019-04-26T06:51:48.042Z,10.24
2019-04-26T06:54:50.391Z,10.10
2019-04-26T06:58:13.444Z,10.15
2019-04-26T07:01:03.215Z,10.17
2019-04-26T07:04:22.137Z,10.13
2019-04-26T07:07:35.994Z,10.32
2019-04-26T07:10:37.269Z,10.47
2019-04-26T07:13:35.236Z,10.55
2019-04-26T07:16:45.838Z,10.67
2019-04-26T07:19:58.477Z,10.62
2019-04-26T07:23:03.766Z,10.50
2019-04-26T07:26:03.806Z,10.72
2019-04-26T07:28:51.737Z,10.83
2019-04-26T07:31:35.393Z,10.73
2019-04-26T07:34:45.485Z,10.83
2019-04-26T07:38:05.317Z,10.95
2019-04-26T07:41:26.042Z,10.88
2019-04-26T07:45:02.074Z,10.90
2019-04-26T07:48:26.957Z,11.03
2019-04-26T07:51:45.893Z,10.99
2019-04-26T07:55:00.177Z,10.93
2019-04-26T07:58:07.342Z,10.89
2019-04-26T08:00:49.014Z,10.84
2019-04-26T08:03:35.965Z,10.80
2019-04-26T08:06:29.929Z,10.81
2019-04-26T08:09:07.927Z,10.87
2019-04-26T08:11:49.723Z,10.83
2019-04-26T08:14:29.069Z,10.91
2019-04-26T08:17:31.397Z,10.83
2019-04-26T08:20:14.136Z,10.81
2019-04-26T08:22:52.239Z,10.84
2019-04-26T08:25:23.874Z,10.70
2019-04-26T08:27:56.241Z,10.75
2019-04-26T08:30:28.561Z,10.65
2019-04-26T08:33:02.155Z,10.74
2019-04-26T08:35:36.796Z,10.76
2019-04-26T08:38:16.107Z,10.69
2019-04-26T08:40:41.833Z,10.83
2019-04-26T08:43:50.147Z,10.95
2019-04-26T08:46:40.780Z,11.04
2019-04-26T08:49:35.140Z,11.03
2019-04-26T08:52:14.297Z,11.11
2019-04-26T08:54:45.152Z,10.93
2019-04-26T08:57:16.967Z,10.85
2019-04-26T08:59:50.819Z,10.76
2019-04-26T09:02:40.779Z,10.79
2019-04-26T09:05:32.553Z,10.61
2019-04-26T09:08:04.103Z,10.68
2019-04-26T09:10:39.350Z,10.71
2019-04-26T09:13:10.823Z,10.78
2019-04-26T09:16:13.590Z,10.77
2019-04-26T09:18:52.649Z,10.82
2019-04-26T09:21:19.512Z,10.81
2019-04-26T09:24:12.701Z,10.85
2019-04-26T09:27:07.595Z,11.00
2019-04-26T09:30:00.566Z,10.93
2019-04-26T09:32:35.008Z,10.88
2019-04-26T09:35:06.183Z,10.86
2019-04-26T09:37:37.179Z,10.95
2019-04-26T09:40:10.357Z,10.96
2019-04-26T09:42:47.305Z,10.88
2019-04-26T09:45:36.136Z,10.94
2019-04-26T09:48:20.653Z,10.98
2019-04-26T09:50:52.829Z,10.93
2019-04-26T09:53:23.796Z,10.81
2019-04-26T09:55:54.770Z,10.77
2019-04-26T09:58:26.867Z,10.65
2019-04-26T10:00:58.827Z,10.56
2019-04-26T10:03:30.141Z,10.50
2019-04-26T10:06:01.082Z,10.59
2019-04-26T10:08:32.340Z,10.32
2019-04-26T10:11:05.808Z,10.38
2019-04-26T10:13:51.028Z,10.45
2019-04-26T10:16:42.393Z,10.41
2019-04-26T10:19:17.073Z,10.48
2019-04-26T10:21:47.816Z,10.72
2019-04-26T10:24:18.896Z,10.80
2019-04-26T10:26:49.587Z,10.76
2019-04-26T10:29:21.750Z,10.76
2019-04-26T10:31:52.979Z,10.83
2019-04-26T10:34:23.731Z,10.89
2019-04-26T10:36:56.847Z,10.82
2019-04-26T10:39:28.613Z,11.00
2019-04-26T10:41:59.597Z,11.16
2019-04-26T10:44:30.721Z,11.15
2019-04-26T10:47:04.366Z,11.09
2019-04-26T10:49:44.921Z,11.09
2019-04-26T10:52:29.817Z,11.24
2019-04-26T10:55:16.023Z,11.18
2019-04-26T10:57:46.059Z,11.27
2019-04-26T11:00:29.128Z,11.22
2019-04-26T11:03:04.007Z,11.24
2019-04-26T11:05:32.845Z,11.18
2019-04-26T11:08:04.216Z,11.25
2019-04-26T11:10:47.982Z,11.39
2019-04-26T11:13:08.707Z,11.65
2019-04-26T11:15:39.758Z,11.73
2019-04-26T11:18:10.569Z,11.73
2019-04-26T11:20:45.660Z,11.79
2019-04-26T11:23:14.286Z,11.88
2019-04-26T11:25:45.084Z,11.81
2019-04-26T11:28:20.845Z,11.74
2019-04-26T11:30:52.072Z,12.04
2019-04-26T11:33:20.767Z,12.24
2019-04-26T11:35:51.818Z,12.41
2019-04-26T11:38:22.655Z,12.42
2019-04-26T11:41:05.803Z,12.33
2019-04-26T11:43:26.192Z,12.30
2019-04-26T11:46:04.233Z,11.98
2019-04-26T11:48:30.679Z,12.01
2019-04-26T11:51:01.426Z,11.93
2019-04-26T11:53:33.497Z,12.04
2019-04-26T11:56:05.674Z,12.07
2019-04-26T11:58:36.791Z,11.87
2019-04-26T12:01:09.419Z,11.96
2019-04-26T12:03:42.712Z,11.81
2019-04-26T12:06:35.538Z,11.71
2019-04-26T12:09:12.726Z,11.70
2019-04-26T12:11:49.598Z,11.60
2019-04-26T12:14:20.553Z,11.50
2019-04-26T12:16:54.977Z,11.32
2019-04-26T12:19:23.041Z,11.29
2019-04-26T12:21:54.992Z,11.35
2019-04-26T12:24:29.603Z,11.43
2019-04-26T12:26:59.729Z,11.52
2019-04-26T12:29:30.503Z,11.57
2019-04-26T12:32:01.485Z,11.57
2019-04-26T12:34:32.366Z,11.58
2019-04-26T12:37:03.243Z,11.67
2019-04-26T12:39:36.714Z,11.66
2019-04-26T12:42:08.304Z,11.74
2019-04-26T12:44:47.012Z,11.70
2019-04-26T12:47:30.495Z,12.01
2019-04-26T12:50:00.549Z,12.34
2019-04-26T12:52:31.210Z,12.33
2019-04-26T12:55:02.246Z,12.40
2019-04-26T12:57:36.453Z,12.24
2019-04-26T13:00:06.188Z,12.33
2019-04-26T13:02:38.084Z,12.30
2019-04-26T13:05:09.162Z,12.08
2019-04-26T13:07:42.929Z,11.93
2019-04-26T13:10:22.053Z,11.81
2019-04-26T13:13:05.911Z,11.82
2019-04-26T13:16:03.340Z,11.77
2019-04-26T13:18:34.324Z,11.90
2019-04-26T13:21:05.647Z,11.92
2019-04-26T13:23:36.400Z,12.15
2019-04-26T13:26:07.138Z,12.67
2019-04-26T13:28:37.880Z,12.87
2019-04-26T13:31:08.718Z,13.05
2019-04-26T13:33:39.927Z,13.26
2019-04-26T13:36:10.681Z,13.15
2019-04-26T13:38:43.413Z,12.86
2019-04-26T13:41:14.593Z,12.86
2019-04-26T13:43:45.383Z,12.55
2019-04-26T13:46:26.679Z,12.30
2019-04-26T13:49:18.158Z,12.24
2019-04-26T13:51:47.516Z,12.06
2019-04-26T13:54:21.181Z,12.03
2019-04-26T13:56:51.475Z,12.20
2019-04-26T13:59:22.479Z,12.51
2019-04-26T14:01:53.215Z,12.48
2019-04-26T14:04:24.057Z,12.59
2019-04-26T14:06:54.971Z,12.71
2019-04-26T14:09:25.891Z,12.68
2019-04-26T14:11:58.070Z,12.60
2019-04-26T14:14:30.207Z,12.89
2019-04-26T14:17:01.502Z,12.84
2019-04-26T14:19:32.489Z,12.66
2019-04-26T14:22:07.172Z,12.60
2019-04-26T14:24:45.326Z,12.87
2019-04-26T14:27:20.307Z,12.91
2019-04-26T14:29:51.046Z,12.90
2019-04-26T14:32:23.382Z,12.71
2019-04-26T14:34:54.726Z,12.97
2019-04-26T14:37:25.712Z,12.83
2019-04-26T14:39:59.260Z,13.00
2019-04-26T14:42:34.399Z,12.98
2019-04-26T14:45:06.145Z,12.93
2019-04-26T14:47:46.742Z,12.85
2019-04-26T14:50:14.198Z,12.58
2019-04-26T14:52:40.441Z,12.55
2019-04-26T14:55:11.251Z,12.53
2019-04-26T14:57:42.791Z,12.61
2019-04-26T15:00:16.742Z,12.62
2019-04-26T15:03:03.833Z,12.72
2019-04-26T15:05:59.446Z,12.69
2019-04-26T15:08:32.086Z,12.52
2019-04-26T15:11:04.564Z,12.36
2019-04-26T15:13:40.263Z,12.14
2019-04-26T15:16:10.202Z,11.79
2019-04-26T15:18:42.507Z,11.62
2019-04-26T15:21:13.382Z,11.53
2019-04-26T15:23:44.181Z,11.34
2019-04-26T15:26:18.414Z,11.42
2019-04-26T15:28:50.548Z,11.36
2019-04-26T15:31:21.672Z,11.35
2019-04-26T15:33:52.964Z,11.38
2019-04-26T15:36:24.818Z,11.46
2019-04-26T15:38:56.200Z,11.41
2019-04-26T15:41:47.054Z,11.49
2019-04-26T15:44:29.699Z,11.50
2019-04-26T15:47:23.606Z,11.62
2019-04-26T15:50:22.320Z,11.55
2019-04-26T15:52:53.133Z,11.48
2019-04-26T15:55:24.112Z,11.44
2019-04-26T15:57:54.852Z,11.54
2019-04-26T16:00:28.388Z,11.54
2019-04-26T16:02:58.652Z,11.73
2019-04-26T16:05:31.274Z,11.55
2019-04-26T16:08:04.662Z,11.54
2019-04-26T16:10:38.350Z,11.78
2019-04-26T16:13:18.017Z,11.93
2019-04-26T16:15:43.624Z,12.08
2019-04-26T16:18:17.046Z,12.21
2019-04-26T16:20:47.210Z,12.25
2019-04-26T16:23:17.971Z,12.22
2019-04-26T16:25:48.776Z,12.26
2019-04-26T16:28:45.788Z,12.27
2019-04-26T16:31:24.925Z,12.14
2019-04-26T16:33:59.037Z,12.21
2019-04-26T16:36:30.067Z,12.19
2019-04-26T16:39:02.530Z,12.26
2019-04-26T16:41:37.829Z,12.23
2019-04-26T16:44:07.844Z,12.16
2019-04-26T16:46:38.560Z,12.13
2019-04-26T16:49:12.411Z,11.99
2019-04-26T16:51:43.150Z,12.01
2019-04-26T16:54:21.064Z,12.03
2019-04-26T16:56:47.064Z,11.97
2019-04-26T16:59:22.537Z,11.94
2019-04-26T17:01:50.560Z,11.98
2019-04-26T17:04:28.216Z,11.92
2019-04-26T17:06:54.282Z,11.90
2019-04-26T17:09:29.758Z,11.89
2019-04-26T17:11:57.703Z,11.76
2019-04-26T17:14:28.514Z,11.84
2019-04-26T17:16:59.492Z,11.92
2019-04-26T17:19:35.921Z,12.00
2019-04-26T17:22:16.680Z,11.86
2019-04-26T17:24:53.379Z,11.87
2019-04-26T17:27:24.504Z,11.80
2019-04-26T17:29:55.325Z,11.81
2019-04-26T17:32:26.068Z,11.88
2019-04-26T17:34:59.503Z,11.81
2019-04-26T17:37:30.545Z,11.73
2019-04-26T17:40:01.551Z,11.84
2019-04-26T17:42:36.310Z,11.65
2019-04-26T17:45:07.052Z,11.73
2019-04-26T17:47:40.249Z,11.72
2019-04-26T17:50:11.567Z,11.62
2019-04-26T17:52:44.232Z,11.58
2019-04-26T17:55:16.080Z,11.44
2019-04-26T17:57:48.432Z,11.52
2019-04-26T18:00:27.138Z,11.46
2019-04-26T18:02:55.085Z,11.40
2019-04-26T18:05:39.919Z,11.22
2019-04-26T18:08:01.680Z,11.20
2019-04-26T18:10:31.345Z,11.23
2019-04-26T18:13:02.535Z,11.15
2019-04-26T18:15:35.641Z,11.09
2019-04-26T18:18:25.267Z,10.93
2019-04-26T18:21:36.979Z,11.05
2019-04-26T18:24:08.031Z,11.09
2019-04-26T18:26:38.776Z,10.90
2019-04-26T18:29:09.600Z,10.94
2019-04-26T18:31:40.643Z,10.78
2019-04-26T18:34:12.815Z,10.73
2019-04-26T18:36:43.867Z,10.71
2019-04-26T18:39:18.066Z,10.70
2019-04-26T18:41:47.872Z,10.58
2019-04-26T18:44:18.726Z,10.67
2019-04-26T18:47:02.782Z,10.54
2019-04-26T18:49:34.841Z,10.53
2019-04-26T18:52:05.581Z,10.43
2019-04-26T18:54:52.936Z,10.39
2019-04-26T18:57:24.242Z,10.45
2019-04-26T18:59:55.702Z,10.54
2019-04-26T19:02:27.948Z,10.60
2019-04-26T19:04:58.926Z,10.64
2019-04-26T19:07:32.682Z,10.60
2019-04-26T19:10:07.052Z,10.45
2019-04-26T19:12:39.220Z,10.35
2019-04-26T19:15:45.814Z,10.36
2019-04-26T19:18:42.446Z,10.40
2019-04-26T19:21:44.615Z,10.29
2019-04-26T19:24:19.640Z,10.20
2019-04-26T19:26:49.735Z,10.04
2019-04-26T19:29:29.148Z,10.01
2019-04-26T19:31:56.714Z,9.99
2019-04-26T19:34:30.251Z,10.19
2019-04-26T19:37:00.973Z,10.29
2019-04-26T19:39:35.499Z,10.46
2019-04-26T19:42:06.851Z,10.19
2019-04-26T19:44:37.589Z,10.29
2019-04-26T19:47:22.684Z,10.59
2019-04-26T19:50:18.442Z,10.62
2019-04-26T19:53:22.965Z,10.71
2019-04-26T19:56:24.856Z,10.59
2019-04-26T19:58:57.642Z,10.37
2019-04-26T20:01:27.485Z,10.30
2019-04-26T20:03:58.343Z,10.32
2019-04-26T20:06:29.336Z,10.48
2019-04-26T20:09:01.944Z,10.76
2019-04-26T20:11:34.442Z,10.97
2019-04-26T20:14:05.237Z,10.83
2019-04-26T20:16:36.476Z,10.84
2019-04-26T20:19:14.938Z,10.84
2019-04-26T20:21:41.496Z,10.87
2019-04-26T20:24:12.758Z,10.92
2019-04-26T20:26:44.703Z,11.03
2019-04-26T20:29:15.745Z,10.86
2019-04-26T20:31:54.340Z,10.94
2019-04-26T20:34:25.064Z,10.86
2019-04-26T20:36:56.032Z,10.76
2019-04-26T20:39:26.830Z,10.89
2019-04-26T20:42:03.563Z,10.88
2019-04-26T20:44:47.520Z,10.90
2019-04-26T20:47:03.425Z,10.94
2019-04-26T20:49:34.145Z,10.98
2019-04-26T20:52:05.136Z,11.01
2019-04-26T20:54:35.880Z,10.90
2019-04-26T20:57:06.696Z,10.94
2019-04-26T20:59:37.419Z,10.95
2019-04-26T21:02:08.485Z,10.98
2019-04-26T21:04:42.251Z,11.03
2019-04-26T21:07:14.093Z,11.04
2019-04-26T21:09:46.079Z,11.06
2019-04-26T21:12:18.520Z,11.00
2019-04-26T21:14:49.204Z,11.02
2019-04-26T21:17:26.380Z,11.09
2019-04-26T21:19:58.413Z,10.99
2019-04-26T21:22:28.878Z,10.86
2019-04-26T21:25:05.543Z,10.85
2019-04-26T21:27:57.000Z,10.91
2019-04-26T21:30:41.843Z,11.05
2019-04-26T21:33:24.498Z,10.86
2019-04-26T21:36:26.088Z,11.00
2019-04-26T21:39:14.891Z,11.07
2019-04-26T21:41:48.371Z,10.99
2019-04-26T21:44:19.237Z,10.97
2019-04-26T21:46:56.111Z,10.98
2019-04-26T21:49:24.375Z,10.82
2019-04-26T21:51:55.128Z,10.84
2019-04-26T21:54:25.877Z,10.84
2019-04-26T21:56:56.861Z,10.78
2019-04-26T21:59:27.838Z,10.93
2019-04-26T22:01:59.279Z,10.83
2019-04-26T22:04:36.365Z,10.89
2019-04-26T22:07:05.161Z,10.73
2019-04-26T22:09:43.967Z,10.58
2019-04-26T22:12:16.064Z,10.57
2019-04-26T22:14:58.245Z,10.63
2019-04-26T22:17:34.791Z,10.56
2019-04-26T22:20:23.390Z,10.50
2019-04-26T22:23:16.361Z,10.55
2019-04-26T22:25:46.623Z,10.37
2019-04-26T22:28:17.604Z,10.29
2019-04-26T22:30:49.321Z,10.22
2019-04-26T22:33:20.071Z,10.11
2019-04-26T22:35:55.283Z,10.08
2019-04-26T22:38:26.693Z,9.98
2019-04-26T22:40:57.534Z,9.88
2019-04-26T22:43:54.058Z,9.77
2019-04-26T22:46:49.445Z,9.69
2019-04-26T22:49:20.050Z,9.67
2019-04-26T22:51:51.327Z,9.62
2019-04-26T22:54:23.074Z,9.57
2019-04-26T22:56:54.828Z,9.53
2019-04-26T22:59:25.579Z,9.41
2019-04-26T23:01:56.306Z,9.32
2019-04-26T23:04:27.807Z,9.32
2019-04-26T23:06:58.545Z,9.21
2019-04-26T23:09:29.300Z,9.18
2019-04-26T23:12:06.833Z,9.13
2019-04-26T23:14:57.641Z,9.04
2019-04-26T23:17:46.468Z,9.18
2019-04-26T23:20:39.073Z,9.14
2019-04-26T23:23:10.488Z,9.08
2019-04-26T23:25:41.460Z,9.09
2019-04-26T23:28:12.512Z,8.99
2019-04-26T23:30:44.243Z,9.03
2019-04-26T23:33:15.186Z,8.91
2019-04-26T23:35:47.753Z,8.93
2019-04-26T23:38:19.521Z,8.94
2019-04-26T23:40:50.798Z,8.81
2019-04-26T23:43:25.437Z,8.79
2019-04-26T23:45:54.205Z,8.79
2019-04-26T23:48:25.192Z,8.78
2019-04-26T23:50:59.927Z,8.77
2019-04-26T23:53:28.350Z,8.78
2019-04-26T23:55:59.311Z,8.83
2019-04-26T23:58:30.299Z,8.84
